Time;durP1;ratioP1;P1;durP2;ratioP2;P2;SDS_P1;SDS_P2;PMS_P1;PMS_P2;Temp;Humidity;BMP_temperature;BMP_pressure;BME280_temperature;BME280_humidity;BME280_pressure;Samples;Min_cycle;Max_cycle;Signal;HPM_P1;HPM_P2
2022/09/13 00:00:48;;;;;;;0.70;0.70;;;24.50;65.90;;;;;;4997945;28;20046;-48
2022/09/13 00:03:14;;;;;;;0.75;0.30;;;24.50;65.90;;;;;;5001672;28;20057;-48
2022/09/13 00:05:39;;;;;;;0.63;0.52;;;24.60;65.90;;;;;;5003466;28;20042;-45
2022/09/13 00:08:05;;;;;;;0.70;0.60;;;24.50;66.50;;;;;;4999438;28;20497;-46
2022/09/13 00:10:33;;;;;;;0.50;0.50;;;24.50;65.80;;;;;;5006144;28;20026;-45
2022/09/13 00:12:59;;;;;;;0.75;0.70;;;24.50;65.90;;;;;;5007556;28;20056;-51
2022/09/13 00:15:24;;;;;;;0.75;0.50;;;24.50;66.00;;;;;;5002939;28;20496;-49
2022/09/13 00:17:50;;;;;;;0.57;0.55;;;24.50;65.90;;;;;;5000548;28;20113;-53
2022/09/13 00:20:16;;;;;;;0.50;0.47;;;24.50;65.90;;;;;;4997944;28;20038;-56
2022/09/13 00:22:41;;;;;;;0.60;0.60;;;24.50;65.90;;;;;;4999024;28;20048;-52
2022/09/13 00:25:07;;;;;;;0.50;0.50;;;24.50;65.90;;;;;;5001247;28;20069;-49
2022/09/13 00:27:34;;;;;;;0.50;0.50;;;24.50;65.80;;;;;;5002063;28;20073;-45
2022/09/13 00:29:59;;;;;;;0.70;0.70;;;24.50;65.90;;;;;;4999673;28;20050;-46
2022/09/13 00:32:25;;;;;;;0.63;0.50;;;24.50;65.90;;;;;;5000015;28;20616;-41
2022/09/13 00:34:50;;;;;;;0.50;0.50;;;24.50;65.80;;;;;;4997619;28;20100;-41
2022/09/13 00:37:16;;;;;;;0.52;0.52;;;24.50;65.90;;;;;;5001753;28;20062;-53
2022/09/13 00:39:41;;;;;;;0.50;0.50;;;24.40;65.80;;;;;;5004871;28;20057;-54
2022/09/13 00:42:12;;;;;;;0.30;0.30;;;24.50;65.90;;;;;;4998877;28;20064;-54
2022/09/13 00:44:58;;;;;;;0.30;0.30;;;24.40;65.90;;;;;;5006410;28;20072;-57
2022/09/13 00:47:31;;;;;;;0.40;0.40;;;24.50;66.00;;;;;;4998770;28;20697;-56
2022/09/13 00:50:20;;;;;;;0.40;0.40;;;24.40;65.90;;;;;;5000866;28;20136;-57
2022/09/13 00:52:49;;;;;;;0.30;0.30;;;24.50;65.80;;;;;;5007581;28;20095;-53
2022/09/13 00:55:24;;;;;;;0.38;0.38;;;24.40;65.70;;;;;;4999462;28;20046;-47
2022/09/13 00:57:50;;;;;;;0.43;0.30;;;24.40;65.80;;;;;;5000760;28;20041;-59
2022/09/13 01:00:16;;;;;;;0.52;0.40;;;24.40;65.90;;;;;;5000640;28;20046;-56
2022/09/13 01:02:45;;;;;;;0.40;0.40;;;24.40;65.90;;;;;;4997165;28;20471;-54
2022/09/13 01:05:11;;;;;;;0.30;0.30;;;24.50;66.00;;;;;;4998196;28;20432;-61
2022/09/13 01:07:37;;;;;;;0.73;0.63;;;24.40;65.90;;;;;;5000277;28;20121;-60
2022/09/13 01:10:03;;;;;;;0.32;0.32;;;24.40;66.00;;;;;;5004689;28;20065;-60
2022/09/13 01:12:46;;;;;;;0.50;0.45;;;24.40;65.90;;;;;;5003902;28;20125;-58
2022/09/13 01:15:17;;;;;;;0.30;0.30;;;24.40;65.70;;;;;;4992302;28;20037;-59
2022/09/13 01:17:43;;;;;;;0.30;0.30;;;24.40;65.90;;;;;;4995342;28;20110;-52
2022/09/13 01:20:09;;;;;;;0.57;0.20;;;24.40;65.90;;;;;;4995637;28;20487;-56
2022/09/13 01:22:45;;;;;;;0.20;0.20;;;24.40;65.90;;;;;;5000886;28;20050;-59
2022/09/13 01:25:27;;;;;;;0.30;0.30;;;24.40;65.90;;;;;;4998276;28;20050;-58
2022/09/13 01:28:04;;;;;;;0.30;0.30;;;24.40;65.80;;;;;;5020010;28;20041;-63
2022/09/13 01:31:01;;;;;;;0.35;0.35;;;24.40;66.00;;;;;;4998298;28;20030;-59
2022/09/13 01:33:33;;;;;;;0.30;0.30;;;24.40;65.90;;;;;;4945846;28;20047;-56
2022/09/13 01:36:04;;;;;;;0.30;0.30;;;24.40;65.90;;;;;;4939791;28;20094;-53
2022/09/13 01:38:58;;;;;;;0.40;0.40;;;24.40;65.90;;;;;;4944482;28;20067;-42
2022/09/13 01:41:27;;;;;;;;;;;24.40;65.80;;;;;;4943803;28;20055;-57
2022/09/13 01:44:20;;;;;;;0.25;0.25;;;24.40;65.80;;;;;;4942292;28;19915;-50
2022/09/13 01:47:03;;;;;;;0.40;0.40;;;24.40;65.80;;;;;;4950039;28;20054;-49
2022/09/13 01:49:53;;;;;;;0.22;0.20;;;24.40;65.80;;;;;;4954371;28;20051;-50
2022/09/13 01:52:43;;;;;;;0.40;0.40;;;24.40;65.70;;;;;;4944072;28;20082;-47
2022/09/13 01:55:22;;;;;;;0.30;0.30;;;24.50;65.90;;;;;;4967306;28;20149;-47
2022/09/13 01:57:55;;;;;;;0.20;0.20;;;24.40;66.70;;;;;;4916069;28;20054;-60
2022/09/13 02:00:20;;;;;;;0.35;0.30;;;24.40;65.90;;;;;;4926158;28;20055;-51
2022/09/13 02:02:58;;;;;;;0.40;0.40;;;24.40;66.10;;;;;;4956561;28;20084;-53
2022/09/13 02:05:50;;;;;;;0.30;0.30;;;24.40;66.00;;;;;;4920096;28;20055;-45
2022/09/13 02:08:36;;;;;;;0.22;0.22;;;24.40;66.00;;;;;;4931690;28;20050;-56
2022/09/13 02:11:12;;;;;;;0.40;0.40;;;24.40;66.00;;;;;;4978090;28;20142;-52
2022/09/13 02:13:48;;;;;;;0.20;0.20;;;24.40;66.00;;;;;;5003445;28;20038;-44
2022/09/13 02:16:40;;;;;;;0.25;0.25;;;24.40;66.10;;;;;;4978753;28;20481;-41
2022/09/13 02:19:09;;;;;;;0.30;0.30;;;24.40;65.90;;;;;;5035771;28;20042;-49
2022/09/13 02:21:38;;;;;;;0.20;0.20;;;24.40;65.90;;;;;;5004970;28;20061;-55
2022/09/13 02:24:08;;;;;;;0.30;0.30;;;24.40;66.10;;;;;;5007306;28;20479;-55
2022/09/13 02:26:35;;;;;;;0.40;0.40;;;24.50;65.90;;;;;;4995455;28;20117;-54
2022/09/13 02:29:03;;;;;;;0.30;0.30;;;24.50;65.80;;;;;;4998505;28;20511;-53
2022/09/13 02:31:32;;;;;;;0.40;0.40;;;24.50;65.70;;;;;;5004668;28;20057;-56
2022/09/13 02:34:02;;;;;;;0.30;0.25;;;24.50;65.80;;;;;;4996877;28;20041;-52
2022/09/13 02:36:29;;;;;;;0.30;0.30;;;24.50;65.50;;;;;;4998161;28;20050;-57
2022/09/13 02:39:02;;;;;;;0.30;0.20;;;24.50;65.60;;;;;;4980435;28;20038;-54
2022/09/13 02:41:56;;;;;;;0.30;0.30;;;24.50;65.60;;;;;;4996437;28;20053;-58
2022/09/13 02:44:41;;;;;;;0.20;0.20;;;24.40;65.70;;;;;;5004460;28;20049;-53
2022/09/13 02:47:15;;;;;;;0.40;0.40;;;24.50;65.80;;;;;;5002091;28;20041;-58
2022/09/13 02:50:11;;;;;;;0.30;0.30;;;24.50;65.70;;;;;;5024851;28;20049;-51
2022/09/13 02:52:59;;;;;;;0.30;0.30;;;24.50;65.80;;;;;;5024744;28;21347;-58
2022/09/13 02:55:36;;;;;;;0.30;0.20;;;24.40;65.80;;;;;;5015204;28;20047;-51
2022/09/13 02:58:18;;;;;;;0.40;0.40;;;24.40;65.70;;;;;;4999643;28;20439;-57
2022/09/13 03:00:45;;;;;;;0.20;0.20;;;24.50;65.70;;;;;;5008361;28;20129;-59
2022/09/13 03:03:11;;;;;;;0.20;0.20;;;24.50;65.60;;;;;;5003625;28;20508;-58
2022/09/13 03:05:37;;;;;;;0.17;0.17;;;24.50;65.50;;;;;;5001189;28;20053;-52
2022/09/13 03:08:02;;;;;;;0.40;0.30;;;24.50;65.40;;;;;;5017511;28;20034;-61
2022/09/13 03:10:33;;;;;;;0.20;0.20;;;24.50;65.50;;;;;;5005407;28;20469;-52
2022/09/13 03:13:20;;;;;;;1.20;0.20;;;24.50;65.40;;;;;;4997015;28;20061;-59
2022/09/13 03:16:01;;;;;;;0.35;0.30;;;24.50;65.40;;;;;;5007182;28;20064;-52
2022/09/13 03:18:42;;;;;;;0.70;0.30;;;24.50;65.30;;;;;;4999634;28;20456;-50
2022/09/13 03:21:27;;;;;;;0.20;0.20;;;24.50;65.30;;;;;;4997483;28;20050;-60
2022/09/13 03:24:04;;;;;;;0.32;0.32;;;24.50;65.40;;;;;;5001159;28;20046;-56
2022/09/13 03:27:08;;;;;;;0.38;0.38;;;24.50;65.60;;;;;;5002941;28;20066;-59
2022/09/13 03:30:12;;;;;;;0.30;0.30;;;24.50;65.40;;;;;;5026364;27;20052;-57
2022/09/13 03:32:49;;;;;;;0.30;0.30;;;24.50;65.50;;;;;;5000066;28;20042;-60
2022/09/13 03:35:41;;;;;;;0.30;0.30;;;24.50;65.40;;;;;;5013045;28;20152;-54
2022/09/13 03:38:24;;;;;;;0.15;0.10;;;24.50;65.30;;;;;;4997666;28;20034;-55
2022/09/13 03:41:01;;;;;;;0.52;0.17;;;24.50;65.50;;;;;;5009629;28;20154;-55
2022/09/13 03:43:34;;;;;;;0.15;0.15;;;24.50;65.40;;;;;;4989147;28;20447;-51
2022/09/13 03:46:04;;;;;;;0.43;0.20;;;24.50;65.30;;;;;;5006146;28;20044;-59
2022/09/13 03:48:31;;;;;;;0.22;0.20;;;24.50;66.10;;;;;;5002642;28;20121;-56
2022/09/13 03:50:56;;;;;;;0.20;0.20;;;24.50;65.90;;;;;;5000082;28;20049;-56
2022/09/13 03:53:24;;;;;;;0.30;0.30;;;24.50;65.20;;;;;;4998407;28;20042;-52
2022/09/13 03:55:49;;;;;;;0.30;0.30;;;24.50;65.30;;;;;;5001296;28;20062;-54
2022/09/13 03:58:18;;;;;;;0.20;0.20;;;24.50;65.30;;;;;;4999149;28;20139;-57
2022/09/13 04:00:44;;;;;;;0.30;0.30;;;24.60;65.20;;;;;;5000412;28;20051;-57
2022/09/13 04:03:11;;;;;;;0.30;0.30;;;24.50;65.30;;;;;;4999443;28;20093;-56
2022/09/13 04:05:36;;;;;;;0.20;0.20;;;24.50;65.30;;;;;;5000178;28;20054;-54
2022/09/13 04:08:04;;;;;;;0.30;0.30;;;24.50;65.30;;;;;;5000359;28;20030;-52
2022/09/13 04:10:30;;;;;;;0.20;0.20;;;24.50;65.20;;;;;;5000467;28;20043;-51
2022/09/13 04:12:57;;;;;;;0.17;0.17;;;24.50;65.20;;;;;;4999711;28;20034;-55
2022/09/13 04:15:23;;;;;;;0.30;0.30;;;24.50;65.40;;;;;;5004834;28;20053;-56
2022/09/13 04:17:49;;;;;;;0.20;0.20;;;24.50;65.40;;;;;;5000783;28;20038;-57
2022/09/13 04:20:14;;;;;;;0.28;0.22;;;24.50;65.40;;;;;;4996747;28;20145;-55
2022/09/13 04:22:41;;;;;;;0.25;0.20;;;24.40;65.40;;;;;;4998173;28;20050;-58
2022/09/13 04:25:07;;;;;;;0.30;0.30;;;24.50;65.50;;;;;;5004340;28;20577;-54
2022/09/13 04:27:34;;;;;;;0.20;0.20;;;24.50;65.40;;;;;;5004516;28;20064;-50
2022/09/13 04:30:00;;;;;;;0.30;0.30;;;24.50;65.40;;;;;;5015234;28;20103;-33
2022/09/13 04:32:26;;;;;;;0.25;0.20;;;24.50;65.30;;;;;;4996181;28;20053;-46
2022/09/13 04:34:51;;;;;;;0.20;0.20;;;24.50;65.20;;;;;;5005084;28;20056;-45
2022/09/13 04:37:17;;;;;;;0.32;0.30;;;24.50;65.40;;;;;;4998606;28;20055;-51
2022/09/13 04:39:42;;;;;;;0.20;0.20;;;24.50;65.40;;;;;;5001819;28;20042;-54
2022/09/13 04:42:09;;;;;;;0.22;0.20;;;24.40;65.30;;;;;;4996777;28;20459;-59
2022/09/13 04:44:34;;;;;;;0.10;0.10;;;24.40;65.40;;;;;;5001120;28;20076;-47
2022/09/13 04:47:00;;;;;;;0.20;0.20;;;24.50;65.40;;;;;;5007374;28;20075;-52
2022/09/13 04:49:25;;;;;;;0.15;0.15;;;24.40;65.40;;;;;;5005026;28;20121;-53
2022/09/13 04:51:51;;;;;;;0.20;0.20;;;24.40;65.40;;;;;;4999515;28;20050;-54
2022/09/13 04:54:17;;;;;;;0.30;0.30;;;24.50;65.30;;;;;;4999436;28;20469;-48
2022/09/13 04:56:43;;;;;;;0.10;0.10;;;24.50;65.40;;;;;;4998923;28;20046;-58
2022/09/13 04:59:09;;;;;;;0.28;0.28;;;24.50;65.40;;;;;;4999105;28;20454;-57
2022/09/13 05:01:36;;;;;;;0.20;0.20;;;24.40;65.30;;;;;;5002414;28;20500;-46
2022/09/13 05:04:02;;;;;;;0.20;0.20;;;24.50;65.30;;;;;;5000543;28;20034;-41
2022/09/13 05:06:28;;;;;;;0.10;0.10;;;24.40;65.30;;;;;;4998429;28;20046;-48
2022/09/13 05:08:54;;;;;;;1.65;0.20;;;24.50;65.50;;;;;;5002280;28;20072;-51
2022/09/13 05:11:24;;;;;;;0.10;0.10;;;24.50;65.60;;;;;;4993161;28;20077;-59
2022/09/13 05:13:56;;;;;;;0.10;0.10;;;24.40;67.40;;;;;;5005547;28;20528;-56
2022/09/13 05:16:26;;;;;;;0.45;0.10;;;24.40;66.60;;;;;;4993699;28;20139;-62
2022/09/13 05:18:52;;;;;;;0.30;0.10;;;24.40;67.50;;;;;;4996069;28;20034;-49
2022/09/13 05:21:18;;;;;;;1.70;0.40;;;24.50;67.20;;;;;;4998163;28;20042;-57
2022/09/13 05:23:43;;;;;;;0.15;0.13;;;24.40;67.30;;;;;;4996793;28;20034;-57
2022/09/13 05:26:09;;;;;;;0.10;0.10;;;24.40;67.20;;;;;;4999370;28;20645;-51
2022/09/13 05:28:35;;;;;;;0.30;0.22;;;24.40;67.40;;;;;;4998204;28;20175;-50
2022/09/13 05:31:02;;;;;;;0.30;0.10;;;24.30;67.80;;;;;;4637092;28;9999996;-54
2022/09/13 05:33:30;;;;;;;1.40;0.20;;;24.40;67.20;;;;;;4976339;28;20775;-47
2022/09/13 05:35:56;;;;;;;0.98;0.30;;;24.50;67.30;;;;;;4977646;28;20038;-52
2022/09/13 05:38:22;;;;;;;2.85;0.50;;;24.50;68.10;;;;;;4975615;28;20077;-51
2022/09/13 05:40:47;;;;;;;1.08;0.30;;;24.60;67.60;;;;;;4990222;28;20047;-40
2022/09/13 05:43:13;;;;;;;0.25;0.20;;;24.60;67.60;;;;;;4990131;28;20121;-51
2022/09/13 05:45:40;;;;;;;0.40;0.30;;;24.60;67.50;;;;;;4990203;28;20083;-49
2022/09/13 05:48:05;;;;;;;1.60;0.30;;;24.60;67.10;;;;;;4992130;28;20041;-59
2022/09/13 05:50:31;;;;;;;1.08;0.40;;;24.60;67.50;;;;;;5013368;28;20034;-59
2022/09/13 05:52:56;;;;;;;1.77;0.35;;;24.60;67.50;;;;;;5002451;28;20577;-55
2022/09/13 05:55:22;;;;;;;1.20;0.50;;;24.60;67.50;;;;;;4998956;28;20039;-48
2022/09/13 05:57:48;;;;;;;2.13;0.30;;;24.60;68.00;;;;;;5013633;28;20038;-57
2022/09/13 06:00:14;;;;;;;0.90;0.40;;;24.60;67.70;;;;;;5000639;28;20472;-55
2022/09/13 06:02:40;;;;;;;2.03;0.50;;;24.60;67.70;;;;;;5010320;28;20038;-56
2022/09/13 06:05:09;;;;;;;1.58;0.50;;;24.60;67.60;;;;;;5010116;28;20036;-55
2022/09/13 06:07:35;;;;;;;0.85;0.32;;;24.60;67.50;;;;;;4996185;28;20037;-54
2022/09/13 06:10:01;;;;;;;2.63;0.55;;;24.60;67.50;;;;;;4656460;28;10000244;-54
2022/09/13 06:12:27;;;;;;;0.63;0.20;;;24.60;67.20;;;;;;4991726;28;20701;-56
2022/09/13 06:14:52;;;;;;;0.25;0.25;;;24.60;67.40;;;;;;4998271;28;20041;-54
2022/09/13 06:17:18;;;;;;;0.85;0.25;;;24.60;67.30;;;;;;4998411;28;20628;-47
2022/09/13 06:19:43;;;;;;;0.43;0.40;;;24.60;67.20;;;;;;4994497;28;20424;-58
2022/09/13 06:22:09;;;;;;;0.32;0.30;;;24.60;67.10;;;;;;4997018;28;20067;-50
2022/09/13 06:24:36;;;;;;;1.60;0.40;;;24.60;67.10;;;;;;4998801;28;20423;-57
2022/09/13 06:27:02;;;;;;;1.63;0.38;;;24.60;67.40;;;;;;4986714;28;20049;-49
2022/09/13 06:29:27;;;;;;;1.70;0.80;;;24.60;67.20;;;;;;4990323;28;20041;-55
2022/09/13 06:31:53;;;;;;;1.38;0.70;;;24.40;68.40;;;;;;4992633;28;20050;-46
2022/09/13 06:34:19;;;;;;;0.60;0.60;;;24.20;69.00;;;;;;4993465;28;20081;-58
2022/09/13 06:36:45;;;;;;;4.55;0.40;;;24.20;69.60;;;;;;4990586;28;20134;-50
2022/09/13 06:39:10;;;;;;;0.60;0.60;;;24.20;68.60;;;;;;4990261;28;20053;-55
2022/09/13 06:41:36;;;;;;;0.98;0.50;;;24.20;69.10;;;;;;4989653;28;20131;-56
2022/09/13 06:44:02;;;;;;;1.10;0.50;;;24.20;69.60;;;;;;4997366;28;20050;-49
2022/09/13 06:46:29;;;;;;;2.28;0.70;;;24.20;70.20;;;;;;5001531;28;20153;-50
2022/09/13 06:48:56;;;;;;;1.33;0.60;;;24.10;70.10;;;;;;4998537;28;20693;-59
2022/09/13 06:51:23;;;;;;;1.20;0.60;;;24.10;70.50;;;;;;4997405;28;20089;-44
2022/09/13 06:53:48;;;;;;;1.70;1.20;;;24.00;70.90;;;;;;5002022;28;20481;-52
2022/09/13 06:56:27;;;;;;;1.90;0.60;;;24.10;71.00;;;;;;4996615;28;20439;-19
2022/09/13 06:58:57;;;;;;;1.80;0.70;;;24.10;70.90;;;;;;4999843;28;20041;-17
2022/09/13 07:01:26;;;;;;;0.90;0.60;;;24.00;71.70;;;;;;4998649;28;20087;-17
2022/09/13 07:03:57;;;;;;;2.17;0.85;;;23.90;71.00;;;;;;4999979;28;20129;-17
2022/09/13 07:06:29;;;;;;;0.82;0.73;;;23.90;71.10;;;;;;4996736;28;20084;-17
2022/09/13 07:08:55;;;;;;;2.83;0.60;;;23.80;71.50;;;;;;4997383;28;20613;-17
2022/09/13 07:11:22;;;;;;;1.00;0.70;;;23.90;71.40;;;;;;4995368;28;20046;-17
2022/09/13 07:13:52;;;;;;;2.08;0.60;;;24.00;71.20;;;;;;4999851;28;20594;-17
2022/09/13 07:16:18;;;;;;;1.85;0.65;;;23.80;71.10;;;;;;5001180;28;20103;-17
2022/09/13 07:18:44;;;;;;;0.93;0.85;;;23.80;71.20;;;;;;4998540;28;20052;-17
2022/09/13 07:21:10;;;;;;;1.65;0.40;;;23.90;70.90;;;;;;4997221;28;20053;-18
2022/09/13 07:23:37;;;;;;;0.60;0.50;;;23.90;71.90;;;;;;5008013;28;20113;-17
2022/09/13 07:26:04;;;;;;;2.00;0.70;;;23.90;71.10;;;;;;4996895;28;20039;-17
2022/09/13 07:28:43;;;;;;;0.80;0.68;;;23.90;71.10;;;;;;4996006;28;20057;-21
2022/09/13 07:31:10;;;;;;;0.70;0.70;;;23.80;71.10;;;;;;5003172;28;20041;-18
2022/09/13 07:33:37;;;;;;;0.90;0.70;;;23.90;71.20;;;;;;5010054;28;20133;-17
2022/09/13 07:36:05;;;;;;;0.80;0.57;;;23.90;71.00;;;;;;4997167;28;20398;-17
2022/09/13 07:38:32;;;;;;;1.60;0.80;;;23.80;71.20;;;;;;5001891;28;20065;-17
2022/09/13 07:40:58;;;;;;;1.98;0.77;;;23.80;71.60;;;;;;5001265;28;20179;-16
2022/09/13 07:43:24;;;;;;;0.50;0.50;;;23.80;71.40;;;;;;5001421;28;20038;-20
2022/09/13 07:46:06;;;;;;;1.30;0.50;;;23.90;71.40;;;;;;5000943;28;21727;-19
2022/09/13 07:48:33;;;;;;;0.73;0.70;;;23.90;71.30;;;;;;5000722;28;20099;-19
2022/09/13 07:51:09;;;;;;;1.10;0.70;;;23.80;71.40;;;;;;4996822;28;20053;-20
2022/09/13 07:53:35;;;;;;;1.75;0.70;;;23.90;71.50;;;;;;4996586;28;20057;-17
2022/09/13 07:56:02;;;;;;;0.95;0.50;;;23.90;71.20;;;;;;5001172;28;20045;-27
2022/09/13 07:58:28;;;;;;;2.70;0.60;;;23.90;71.10;;;;;;5000389;28;20049;-17
2022/09/13 08:00:53;;;;;;;0.52;0.40;;;23.90;71.10;;;;;;4999211;28;20050;-17
2022/09/13 08:03:19;;;;;;;0.40;0.40;;;23.90;70.70;;;;;;5000985;28;20439;-17
2022/09/13 08:05:44;;;;;;;1.10;0.57;;;24.00;70.60;;;;;;5004528;28;20496;-17
2022/09/13 08:08:10;;;;;;;0.52;0.50;;;24.00;70.50;;;;;;5001076;28;20107;-18
2022/09/13 08:10:36;;;;;;;0.50;0.45;;;24.00;70.40;;;;;;5003765;28;20132;-19
2022/09/13 08:13:01;;;;;;;1.77;0.60;;;24.00;70.60;;;;;;5001754;28;20504;-17
2022/09/13 08:15:27;;;;;;;1.45;0.73;;;24.00;70.70;;;;;;4999239;28;20060;-17
2022/09/13 08:17:53;;;;;;;0.98;0.45;;;24.00;70.30;;;;;;5003214;28;20104;-17
2022/09/13 08:20:19;;;;;;;1.10;0.50;;;24.00;70.50;;;;;;5001863;28;20053;-18
2022/09/13 08:22:45;;;;;;;1.05;0.60;;;24.00;70.40;;;;;;5004280;28;20077;-17
2022/09/13 08:25:10;;;;;;;0.73;0.68;;;24.00;70.50;;;;;;5002591;28;20187;-21
2022/09/13 08:27:36;;;;;;;0.82;0.40;;;24.00;70.50;;;;;;5002698;28;20053;-17
2022/09/13 08:30:02;;;;;;;0.70;0.40;;;24.10;70.30;;;;;;5003958;28;20089;-17
2022/09/13 08:32:27;;;;;;;1.10;0.43;;;24.00;70.10;;;;;;5000807;28;20516;-17
2022/09/13 08:34:53;;;;;;;4.18;0.50;;;24.10;70.10;;;;;;5001181;28;20505;-17
2022/09/13 08:37:18;;;;;;;1.02;0.70;;;24.00;70.40;;;;;;5002797;28;20054;-17
2022/09/13 08:39:44;;;;;;;1.95;0.70;;;24.10;70.00;;;;;;4999599;28;20069;-17
2022/09/13 08:42:46;;;;;;;0.65;0.57;;;24.10;69.80;;;;;;4998890;28;20042;-17
2022/09/13 08:45:12;;;;;;;1.05;0.47;;;24.10;69.80;;;;;;5000395;28;20577;-21
2022/09/13 08:47:55;;;;;;;0.70;0.40;;;24.20;69.80;;;;;;4999953;28;20071;-18
2022/09/13 08:50:32;;;;;;;1.30;0.60;;;24.10;69.80;;;;;;5001837;28;20038;-17
2022/09/13 08:53:17;;;;;;;1.55;0.70;;;24.20;69.80;;;;;;5014103;28;20073;-17
2022/09/13 08:56:04;;;;;;;0.98;0.60;;;24.20;69.40;;;;;;5000723;28;20129;-17
2022/09/13 08:58:29;;;;;;;0.65;0.63;;;24.20;69.70;;;;;;5000042;28;20125;-17
2022/09/13 09:01:20;;;;;;;1.65;0.65;;;24.20;69.60;;;;;;5009362;28;20632;-17
2022/09/13 09:04:16;;;;;;;1.08;0.80;;;24.20;70.30;;;;;;4999099;28;20226;-17
2022/09/13 09:06:41;;;;;;;1.42;0.63;;;24.20;69.60;;;;;;4996275;28;20077;-17
2022/09/13 09:09:13;;;;;;;5.22;1.10;;;24.20;69.90;;;;;;4981599;28;20057;-18
2022/09/13 09:11:55;;;;;;;1.38;0.60;;;24.10;70.10;;;;;;4997572;28;20053;-18
2022/09/13 09:14:24;;;;;;;2.28;0.88;;;24.20;70.30;;;;;;4999188;28;20489;-17
2022/09/13 09:16:54;;;;;;;4.97;0.80;;;24.20;70.20;;;;;;4996252;28;20046;-17
2022/09/13 09:19:43;;;;;;;1.35;0.80;;;24.20;70.30;;;;;;4991427;28;20161;-17
2022/09/13 09:22:20;;;;;;;2.30;1.00;;;24.30;69.60;;;;;;5008128;28;20050;-17
2022/09/13 09:24:52;;;;;;;1.20;0.60;;;24.30;69.60;;;;;;5003506;28;20034;-18
2022/09/13 09:27:18;;;;;;;1.55;0.63;;;24.30;69.80;;;;;;4998321;28;20067;-22
2022/09/13 09:29:45;;;;;;;0.73;0.70;;;24.20;70.30;;;;;;4999942;28;20500;-17
2022/09/13 09:32:17;;;;;;;2.25;0.60;;;24.20;70.20;;;;;;5013491;28;20050;-17
2022/09/13 09:35:04;;;;;;;3.50;0.73;;;24.30;69.80;;;;;;4998415;28;20053;-17
2022/09/13 09:37:30;;;;;;;0.80;0.80;;;24.30;69.40;;;;;;4996694;28;20513;-17
2022/09/13 09:40:06;;;;;;;1.70;0.90;;;24.30;70.00;;;;;;4999782;28;20046;-17
2022/09/13 09:42:41;;;;;;;2.42;0.95;;;24.30;70.00;;;;;;5019723;28;20099;-17
2022/09/13 09:45:27;;;;;;;3.97;0.88;;;24.30;70.40;;;;;;4999539;28;20118;-17
2022/09/13 09:47:52;;;;;;;1.10;0.80;;;24.30;69.60;;;;;;4995705;28;20057;-17
2022/09/13 09:50:19;;;;;;;1.17;0.80;;;24.30;69.40;;;;;;5005916;28;20428;-18
2022/09/13 09:53:07;;;;;;;1.70;0.85;;;24.30;70.20;;;;;;4981930;28;20405;-21
2022/09/13 09:55:52;;;;;;;3.13;0.80;;;24.40;69.60;;;;;;4999278;28;20046;-17
2022/09/13 09:58:21;;;;;;;0.70;0.70;;;24.40;69.30;;;;;;4999751;28;20563;-17
2022/09/13 10:00:52;;;;;;;1.23;1.08;;;24.30;69.30;;;;;;4986957;28;20066;-17
2022/09/13 10:03:25;;;;;;;2.03;1.17;;;24.40;71.00;;;;;;4982221;28;20061;-17
2022/09/13 10:06:05;;;;;;;1.48;0.93;;;24.40;69.40;;;;;;5007155;28;20042;-20
2022/09/13 10:08:33;;;;;;;0.98;0.90;;;24.40;70.10;;;;;;4983038;28;20423;-17
2022/09/13 10:10:59;;;;;;;1.98;0.90;;;24.40;70.30;;;;;;4998196;28;20508;-17
2022/09/13 10:13:25;;;;;;;1.63;0.98;;;24.40;70.30;;;;;;4998214;28;20057;-18
2022/09/13 10:15:54;;;;;;;2.72;1.00;;;24.40;70.00;;;;;;4995605;28;20037;-18
2022/09/13 10:18:20;;;;;;;2.45;1.20;;;24.50;69.80;;;;;;4998089;28;20098;-18
2022/09/13 10:21:17;;;;;;;2.67;1.08;;;24.50;68.70;;;;;;4995116;28;20500;-17
2022/09/13 10:23:43;;;;;;;1.23;0.70;;;24.50;69.70;;;;;;4994680;28;20084;-17
2022/09/13 10:26:11;;;;;;;1.42;1.10;;;24.50;69.20;;;;;;4997131;28;20034;-17
2022/09/13 10:29:14;;;;;;;2.08;0.90;;;24.50;69.00;;;;;;4999209;28;20094;-17
2022/09/13 10:31:42;;;;;;;1.00;0.88;;;24.60;69.20;;;;;;5007841;28;20065;-17
2022/09/13 10:34:21;;;;;;;1.65;0.90;;;24.60;69.00;;;;;;4998023;28;20038;-17
2022/09/13 10:37:00;;;;;;;1.45;1.05;;;24.60;69.30;;;;;;4987264;28;20564;-17
2022/09/13 10:39:26;;;;;;;4.50;1.15;;;24.60;69.10;;;;;;4999792;28;20461;-17
2022/09/13 10:41:58;;;;;;;1.90;1.05;;;24.70;70.00;;;;;;4999011;28;20054;-17
2022/09/13 10:44:43;;;;;;;2.35;1.17;;;24.70;69.80;;;;;;4993320;28;20049;-17
2022/09/13 10:47:16;;;;;;;3.15;1.10;;;24.70;69.60;;;;;;4993456;28;20080;-17
2022/09/13 10:49:46;;;;;;;1.63;1.00;;;24.70;69.10;;;;;;5005046;28;20050;-20
2022/09/13 10:52:33;;;;;;;1.17;1.00;;;24.70;69.80;;;;;;5006420;28;20077;-19
2022/09/13 10:55:17;;;;;;;1.58;1.05;;;24.70;69.30;;;;;;4989698;28;20140;-20
2022/09/13 10:57:47;;;;;;;2.85;0.95;;;24.70;69.40;;;;;;4985238;28;20054;-19
2022/09/13 11:00:23;;;;;;;1.23;0.93;;;24.70;69.10;;;;;;4987500;28;20512;-19
2022/09/13 11:03:25;;;;;;;1.63;1.08;;;24.70;69.20;;;;;;4991068;28;20523;-19
2022/09/13 11:06:09;;;;;;;0.80;0.77;;;24.80;69.40;;;;;;4988622;28;20061;-20
2022/09/13 11:09:00;;;;;;;0.65;0.60;;;24.80;68.90;;;;;;4994635;28;20041;-20
2022/09/13 11:11:48;;;;;;;3.85;1.15;;;24.80;69.70;;;;;;4991293;28;20049;-29
2022/09/13 11:14:20;;;;;;;1.60;1.10;;;24.80;69.60;;;;;;4992114;28;20078;-20
2022/09/13 11:17:03;;;;;;;2.45;1.27;;;24.80;69.40;;;;;;5005957;27;20130;-24
2022/09/13 11:19:41;;;;;;;2.58;1.27;;;24.80;69.70;;;;;;4992997;28;20041;-20
2022/09/13 11:22:16;;;;;;;1.48;0.93;;;24.90;70.10;;;;;;4646771;28;10000596;-18
2022/09/13 11:25:12;;;;;;;1.60;1.00;;;24.90;69.30;;;;;;5000500;28;20133;-20
2022/09/13 11:27:57;;;;;;;2.55;1.17;;;24.90;69.10;;;;;;5013377;28;20069;-19
2022/09/13 11:30:23;;;;;;;3.77;1.00;;;24.90;69.30;;;;;;4649542;28;10000405;-21
2022/09/13 11:33:04;;;;;;;2.20;1.23;;;24.90;69.30;;;;;;4992836;28;20061;-19
2022/09/13 11:35:36;;;;;;;4.63;1.30;;;24.90;70.20;;;;;;4999556;28;20034;-19
2022/09/13 11:38:31;;;;;;;1.77;1.30;;;24.90;69.60;;;;;;4994766;28;20057;-18
2022/09/13 11:41:12;;;;;;;1.27;1.10;;;24.90;69.70;;;;;;4936511;28;20036;-18
2022/09/13 11:43:43;;;;;;;3.65;1.25;;;24.90;70.30;;;;;;5002588;28;20067;-19
2022/09/13 11:46:33;;;;;;;3.58;1.30;;;24.90;69.90;;;;;;4949774;28;20050;-19
2022/09/13 11:49:02;;;;;;;3.55;1.65;;;24.90;69.90;;;;;;4940703;28;20054;-18
2022/09/13 11:51:52;;;;;;;1.77;1.38;;;24.90;70.00;;;;;;4921464;28;20062;-19
2022/09/13 11:54:36;;;;;;;4.07;1.63;;;24.90;70.00;;;;;;4940920;28;20082;-19
2022/09/13 11:57:06;;;;;;;2.13;1.23;;;25.00;70.00;;;;;;4939355;28;20198;-19
2022/09/13 11:59:36;;;;;;;1.60;1.20;;;24.90;70.80;;;;;;5002597;28;20166;-19
2022/09/13 12:02:25;;;;;;;1.67;1.15;;;25.00;70.20;;;;;;4924442;28;20138;-18
2022/09/13 12:05:01;;;;;;;3.85;1.58;;;24.90;70.40;;;;;;4926554;28;20134;-20
2022/09/13 12:07:36;;;;;;;2.00;1.33;;;24.90;70.00;;;;;;4946268;28;20336;-19
2022/09/13 12:10:16;;;;;;;3.83;1.48;;;24.90;69.90;;;;;;4928590;28;20046;-19
2022/09/13 12:12:41;;;;;;;2.92;1.45;;;25.00;70.60;;;;;;5003164;28;20115;-19
2022/09/13 12:15:14;;;;;;;2.47;1.30;;;25.00;70.30;;;;;;4943160;28;20047;-19
2022/09/13 12:17:42;;;;;;;2.70;1.50;;;25.00;70.60;;;;;;4953523;28;20157;-21
2022/09/13 12:20:18;;;;;;;2.65;1.63;;;25.00;70.20;;;;;;5009394;28;20042;-19
2022/09/13 12:22:44;;;;;;;2.25;1.30;;;25.00;70.10;;;;;;4999983;28;20095;-18
2022/09/13 12:25:22;;;;;;;3.67;1.38;;;25.00;70.30;;;;;;5002220;28;20034;-18
2022/09/13 12:28:04;;;;;;;3.75;1.42;;;25.00;70.40;;;;;;4992145;28;20058;-19
2022/09/13 12:30:41;;;;;;;2.13;1.40;;;25.00;70.30;;;;;;5009676;28;20072;-19
2022/09/13 12:33:07;;;;;;;5.07;1.30;;;25.10;70.90;;;;;;4992967;28;20076;-19
2022/09/13 12:35:36;;;;;;;4.45;2.00;;;25.10;71.20;;;;;;4998920;28;20030;-18
2022/09/13 12:38:04;;;;;;;3.28;1.50;;;25.10;70.60;;;;;;4999856;28;20424;-19
2022/09/13 12:41:08;;;;;;;2.90;1.25;;;25.10;69.90;;;;;;4992857;28;20031;-19
2022/09/13 12:43:48;;;;;;;2.03;1.13;;;25.20;69.80;;;;;;4993076;28;20030;-18
2022/09/13 12:46:34;;;;;;;2.67;1.10;;;25.20;70.20;;;;;;4994464;28;20425;-23
2022/09/13 12:49:26;;;;;;;2.65;2.05;;;25.20;71.20;;;;;;4992259;28;20062;-19
2022/09/13 12:52:31;;;;;;;1.48;1.20;;;25.20;69.90;;;;;;5002203;28;20054;-18
2022/09/13 12:55:15;;;;;;;1.58;1.00;;;25.20;69.50;;;;;;4994515;28;20057;-19
2022/09/13 12:57:47;;;;;;;3.10;1.75;;;25.20;69.80;;;;;;4997270;28;20783;-15
2022/09/13 13:00:19;;;;;;;2.65;1.35;;;25.20;69.60;;;;;;4994239;28;20057;-15
2022/09/13 13:02:48;;;;;;;0.98;0.98;;;25.30;69.60;;;;;;4995579;28;20103;-15
2022/09/13 13:05:19;;;;;;;2.47;1.25;;;25.20;70.30;;;;;;4991867;28;20054;-15
2022/09/13 13:07:52;;;;;;;1.88;1.35;;;25.30;69.60;;;;;;4992153;28;20104;-14
2022/09/13 13:10:36;;;;;;;1.52;0.82;;;25.20;69.40;;;;;;5000055;28;20038;-17
2022/09/13 13:13:32;;;;;;;1.50;1.23;;;25.20;70.10;;;;;;4993212;28;20126;-14